Time;durP1;ratioP1;P1;durP2;ratioP2;P2;SDS_P1;SDS_P2;PMS_P1;PMS_P2;Temp;Humidity;BMP_temperature;BMP_pressure;BME280_temperature;BME280_humidity;BME280_pressure;Samples;Min_cycle;Max_cycle;Signal;HPM_P1;HPM_P2
2023/05/16 00:01:43;;;;;;;21.58;3.58;;;;;;;;;;5065633;28;20047;-88
2023/05/16 00:04:09;;;;;;;16.20;2.10;;;;;;;;;;5080101;28;20039;-88
2023/05/16 00:06:35;;;;;;;11.20;2.80;;;;;;;;;;5079956;28;20043;-88
2023/05/16 00:09:01;;;;;;;17.05;2.83;;;;;;;;;;5077504;28;20864;-88
2023/05/16 00:11:28;;;;;;;19.90;2.40;;;;;;;;;;5077173;28;20037;-88
2023/05/16 00:13:54;;;;;;;21.33;3.45;;;;;;;;;;5080968;28;21769;-88
2023/05/16 00:16:20;;;;;;;18.27;2.47;;;;;;;;;;5075754;28;20176;-88
2023/05/16 00:18:47;;;;;;;11.27;2.35;;;;;;;;;;5077547;28;20115;-87
2023/05/16 00:21:13;;;;;;;23.30;2.63;;;;;;;;;;5078160;28;20044;-88
2023/05/16 00:23:39;;;;;;;19.45;3.08;;;;;;;;;;5091608;27;20097;-87
2023/05/16 00:26:05;;;;;;;15.15;2.15;;;;;;;;;;5077904;28;20060;-87
2023/05/16 00:28:31;;;;;;;13.88;2.50;;;;;;;;;;5075825;28;20051;-87
2023/05/16 00:30:58;;;;;;;16.02;2.25;;;;;;;;;;5060542;28;20101;-85
2023/05/16 00:33:24;;;;;;;14.18;2.78;;;;;;;;;;5078464;28;20048;-86
2023/05/16 00:35:52;;;;;;;15.48;2.58;;;;;;;;;;5059943;28;20074;-85
2023/05/16 00:38:18;;;;;;;24.38;3.13;;;;;;;;;;5077402;28;20135;-88
2023/05/16 00:40:45;;;;;;;15.02;2.45;;;;;;;;;;5096752;27;20388;-87
2023/05/16 00:43:11;;;;;;;27.55;3.35;;;;;;;;;;5081391;28;20043;-88
2023/05/16 00:45:37;;;;;;;15.88;3.65;;;;;;;;;;5079713;28;20499;-87
2023/05/16 00:48:04;;;;;;;17.00;2.65;;;;;;;;;;5078008;28;20052;-88
2023/05/16 00:50:30;;;;;;;13.65;2.47;;;;;;;;;;5058410;28;20039;-88
2023/05/16 00:52:56;;;;;;;13.50;2.10;;;;;;;;;;5076972;28;20077;-87
2023/05/16 00:55:22;;;;;;;14.27;2.40;;;;;;;;;;5079099;28;20040;-87
2023/05/16 00:57:48;;;;;;;17.80;2.50;;;;;;;;;;5076771;28;20429;-85
2023/05/16 01:00:15;;;;;;;17.35;2.45;;;;;;;;;;5077082;28;20066;-85
2023/05/16 01:02:41;;;;;;;17.02;2.45;;;;;;;;;;5079146;28;20036;-87
2023/05/16 01:05:08;;;;;;;12.77;2.55;;;;;;;;;;5077193;28;20445;-87
2023/05/16 01:07:35;;;;;;;18.60;2.50;;;;;;;;;;5061785;28;20804;-88
2023/05/16 01:10:02;;;;;;;14.57;2.50;;;;;;;;;;5078365;28;20079;-88
2023/05/16 01:12:28;;;;;;;18.45;2.92;;;;;;;;;;5076775;28;20912;-88
2023/05/16 01:15:07;;;;;;;22.23;2.83;;;;;;;;;;5076748;28;20097;-86
2023/05/16 01:17:33;;;;;;;15.65;3.08;;;;;;;;;;5078177;28;20079;-87
2023/05/16 01:20:25;;;;;;;13.35;2.38;;;;;;;;;;5076436;28;20507;-86
2023/05/16 01:23:05;;;;;;;13.25;2.13;;;;;;;;;;5027115;28;20136;-86
2023/05/16 01:25:37;;;;;;;20.73;2.47;;;;;;;;;;5095410;28;22065;-87
2023/05/16 01:28:04;;;;;;;15.93;2.65;;;;;;;;;;5082585;28;20047;-87
2023/05/16 01:30:35;;;;;;;13.07;1.80;;;;;;;;;;5076291;28;20574;-86
2023/05/16 01:33:01;;;;;;;15.43;1.73;;;;;;;;;;5073901;28;21217;-86
2023/05/16 01:35:28;;;;;;;18.63;2.42;;;;;;;;;;5073925;28;20451;-86
2023/05/16 01:38:23;;;;;;;10.43;1.90;;;;;;;;;;5068273;28;20079;-87
2023/05/16 01:41:01;;;;;;;17.52;2.47;;;;;;;;;;5004231;28;20068;-87
2023/05/16 01:43:34;;;;;;;10.48;2.17;;;;;;;;;;5076020;28;20044;-87
2023/05/16 01:46:05;;;;;;;14.13;2.88;;;;;;;;;;5052997;28;20036;-86
2023/05/16 01:48:35;;;;;;;15.73;2.03;;;;;;;;;;5067901;28;20314;-86
2023/05/16 01:51:02;;;;;;;13.00;2.65;;;;;;;;;;5068326;28;20044;-87
2023/05/16 01:53:33;;;;;;;11.95;1.95;;;;;;;;;;5054846;28;20169;-87
2023/05/16 01:56:01;;;;;;;13.68;2.45;;;;;;;;;;5075297;28;20051;-86
2023/05/16 01:58:28;;;;;;;14.45;2.33;;;;;;;;;;5057465;28;20044;-86
2023/05/16 02:00:54;;;;;;;18.80;2.55;;;;;;;;;;5073612;28;20044;-86
2023/05/16 02:03:20;;;;;;;11.95;2.85;;;;;;;;;;5089714;28;20059;-86
2023/05/16 02:05:46;;;;;;;19.83;2.25;;;;;;;;;;5069979;28;20145;-85
2023/05/16 02:08:13;;;;;;;10.30;2.00;;;;;;;;;;5076516;28;20040;-85
2023/05/16 02:10:40;;;;;;;12.27;2.10;;;;;;;;;;5074612;28;20463;-86
2023/05/16 02:13:06;;;;;;;18.27;2.53;;;;;;;;;;5072128;28;20028;-86
2023/05/16 02:15:32;;;;;;;15.25;2.13;;;;;;;;;;5076241;28;20125;-86
2023/05/16 02:17:58;;;;;;;12.35;2.92;;;;;;;;;;5078141;28;20048;-86
2023/05/16 02:20:24;;;;;;;11.45;2.10;;;;;;;;;;5078742;28;20578;-86
2023/05/16 02:22:50;;;;;;;22.00;3.08;;;;;;;;;;5062227;28;20036;-86
2023/05/16 02:25:17;;;;;;;15.55;2.83;;;;;;;;;;5058936;28;20066;-86
2023/05/16 02:27:43;;;;;;;14.65;2.45;;;;;;;;;;5074614;28;20052;-86
2023/05/16 02:30:11;;;;;;;14.55;1.90;;;;;;;;;;5060981;28;20036;-86
2023/05/16 02:32:38;;;;;;;11.40;2.28;;;;;;;;;;5075999;28;20109;-86
2023/05/16 02:35:04;;;;;;;13.18;2.13;;;;;;;;;;5058286;28;20032;-86
2023/05/16 02:37:30;;;;;;;12.00;2.20;;;;;;;;;;5091829;28;20056;-86
2023/05/16 02:39:56;;;;;;;11.93;2.53;;;;;;;;;;5076478;28;20040;-86
2023/05/16 02:42:22;;;;;;;17.45;2.65;;;;;;;;;;5058420;28;20054;-86
2023/05/16 02:44:49;;;;;;;11.07;1.73;;;;;;;;;;5061415;28;20131;-85
2023/05/16 02:47:15;;;;;;;16.30;2.10;;;;;;;;;;5080017;28;20062;-86
2023/05/16 02:49:41;;;;;;;18.30;2.88;;;;;;;;;;5041947;28;20039;-86
2023/05/16 02:52:07;;;;;;;10.48;1.98;;;;;;;;;;5063397;28;20052;-86
2023/05/16 02:54:33;;;;;;;15.70;2.60;;;;;;;;;;5063082;28;20078;-85
2023/05/16 02:56:59;;;;;;;14.85;2.45;;;;;;;;;;5078060;28;20064;-86
2023/05/16 02:59:25;;;;;;;9.50;1.98;;;;;;;;;;5079578;28;20051;-86
2023/05/16 03:01:51;;;;;;;12.95;3.65;;;;;;;;;;5080063;28;20040;-86
2023/05/16 03:04:18;;;;;;;11.35;1.60;;;;;;;;;;5078726;28;22105;-87
2023/05/16 03:06:44;;;;;;;14.80;2.40;;;;;;;;;;5058977;28;20048;-86
2023/05/16 03:09:10;;;;;;;17.25;2.80;;;;;;;;;;5073571;28;20047;-86
2023/05/16 03:11:36;;;;;;;12.48;2.05;;;;;;;;;;5070149;28;20051;-87
2023/05/16 03:14:02;;;;;;;8.32;1.95;;;;;;;;;;5077508;28;20048;-86
2023/05/16 03:16:29;;;;;;;15.82;2.80;;;;;;;;;;5059997;28;20044;-86
2023/05/16 03:18:55;;;;;;;14.32;2.50;;;;;;;;;;5088223;28;20047;-86
2023/05/16 03:21:21;;;;;;;14.45;2.17;;;;;;;;;;5096293;28;22884;-86
2023/05/16 03:23:48;;;;;;;16.42;2.80;;;;;;;;;;5096645;28;20055;-87
2023/05/16 03:26:14;;;;;;;11.00;1.92;;;;;;;;;;5097147;28;20040;-87
2023/05/16 03:28:40;;;;;;;12.98;2.30;;;;;;;;;;5109004;28;20107;-86
2023/05/16 03:31:06;;;;;;;13.88;2.30;;;;;;;;;;5081029;28;20046;-87
2023/05/16 03:33:32;;;;;;;16.95;2.92;;;;;;;;;;5068085;28;20162;-86
2023/05/16 03:35:59;;;;;;;18.45;2.53;;;;;;;;;;5071650;28;20048;-87
2023/05/16 03:38:25;;;;;;;16.63;2.42;;;;;;;;;;5073609;28;20067;-86
2023/05/16 03:40:52;;;;;;;12.60;2.47;;;;;;;;;;5071630;28;20070;-86
2023/05/16 03:43:18;;;;;;;9.88;1.95;;;;;;;;;;5077204;28;20048;-86
2023/05/16 03:45:44;;;;;;;13.15;2.15;;;;;;;;;;5059234;28;20040;-86
2023/05/16 03:48:10;;;;;;;18.38;1.90;;;;;;;;;;5057385;28;20088;-86
2023/05/16 03:50:38;;;;;;;13.68;2.30;;;;;;;;;;5056685;28;20071;-85
2023/05/16 03:53:04;;;;;;;16.10;2.20;;;;;;;;;;5075268;28;20455;-86
2023/05/16 03:55:30;;;;;;;12.90;2.13;;;;;;;;;;5091434;27;20139;-86
2023/05/16 03:57:56;;;;;;;14.30;2.70;;;;;;;;;;5073431;28;20187;-86
2023/05/16 04:00:23;;;;;;;12.52;2.50;;;;;;;;;;5072761;28;20040;-85
2023/05/16 04:02:49;;;;;;;10.57;2.00;;;;;;;;;;5061340;28;20050;-86
2023/05/16 04:05:15;;;;;;;13.95;2.28;;;;;;;;;;5038319;28;20167;-87
2023/05/16 04:07:41;;;;;;;8.43;2.63;;;;;;;;;;5054325;28;20407;-87
2023/05/16 04:10:08;;;;;;;13.50;2.30;;;;;;;;;;5074406;28;20139;-86
2023/05/16 04:12:34;;;;;;;13.65;2.58;;;;;;;;;;5057277;28;20040;-88
2023/05/16 04:15:01;;;;;;;14.40;2.90;;;;;;;;;;5058519;28;20148;-85
2023/05/16 04:17:27;;;;;;;12.35;2.03;;;;;;;;;;5057108;28;20138;-87
2023/05/16 04:19:54;;;;;;;17.90;2.38;;;;;;;;;;5037812;28;20127;-87
2023/05/16 04:22:21;;;;;;;18.40;2.17;;;;;;;;;;5041372;28;20047;-86
2023/05/16 04:24:48;;;;;;;11.55;2.10;;;;;;;;;;5035839;28;20058;-86
2023/05/16 04:27:14;;;;;;;12.40;2.58;;;;;;;;;;5042952;28;20239;-87
2023/05/16 04:29:40;;;;;;;8.93;1.65;;;;;;;;;;5037679;28;20499;-86
2023/05/16 04:32:06;;;;;;;14.30;2.47;;;;;;;;;;5057693;28;20073;-86
2023/05/16 04:34:36;;;;;;;14.30;1.98;;;;;;;;;;5039520;28;20075;-86
2023/05/16 04:37:04;;;;;;;10.85;2.03;;;;;;;;;;5056311;28;20056;-86
2023/05/16 04:39:31;;;;;;;17.33;1.98;;;;;;;;;;5069164;28;20054;-86
2023/05/16 04:42:00;;;;;;;20.70;2.00;;;;;;;;;;5055995;28;20040;-86
2023/05/16 04:44:27;;;;;;;7.95;1.80;;;;;;;;;;5053929;28;20439;-87
2023/05/16 04:46:53;;;;;;;11.30;1.50;;;;;;;;;;5053171;28;20184;-86
2023/05/16 04:49:19;;;;;;;11.93;1.90;;;;;;;;;;5037394;28;20456;-86
2023/05/16 04:51:46;;;;;;;12.18;2.05;;;;;;;;;;5052842;28;20652;-87
2023/05/16 04:54:12;;;;;;;13.50;1.85;;;;;;;;;;5036932;28;20052;-86
2023/05/16 04:57:01;;;;;;;;;;;;;;;;;;;;;
2023/05/16 04:59:30;;;;;;;15.10;2.03;;;;;;;;;;5072857;28;20050;-87
2023/05/16 05:01:56;;;;;;;12.98;1.67;;;;;;;;;;5065932;28;20039;-87
2023/05/16 05:04:22;;;;;;;17.70;2.33;;;;;;;;;;5068036;28;20052;-88
2023/05/16 05:06:48;;;;;;;13.82;1.83;;;;;;;;;;5067792;28;20185;-88
2023/05/16 05:09:15;;;;;;;14.02;2.40;;;;;;;;;;5049593;28;20160;-87
2023/05/16 05:11:41;;;;;;;10.30;1.65;;;;;;;;;;5028659;28;20057;-87
2023/05/16 05:14:07;;;;;;;10.95;1.73;;;;;;;;;;5047978;28;20404;-87
2023/05/16 05:16:33;;;;;;;7.57;1.25;;;;;;;;;;5049072;28;20032;-88
2023/05/16 05:19:00;;;;;;;9.57;1.85;;;;;;;;;;5064361;28;20132;-87
2023/05/16 05:21:26;;;;;;;8.85;1.77;;;;;;;;;;5065544;28;20762;-87
2023/05/16 05:23:52;;;;;;;13.65;2.10;;;;;;;;;;5058765;28;20191;-85
2023/05/16 05:26:18;;;;;;;9.40;2.22;;;;;;;;;;5063761;28;20032;-86
2023/05/16 05:28:44;;;;;;;10.88;2.15;;;;;;;;;;5080665;28;20119;-85
2023/05/16 05:31:10;;;;;;;13.85;1.95;;;;;;;;;;5061829;28;20040;-86
2023/05/16 05:33:36;;;;;;;22.42;2.13;;;;;;;;;;5077704;28;20043;-87
2023/05/16 05:36:03;;;;;;;10.13;1.80;;;;;;;;;;5078236;28;20491;-88
2023/05/16 05:38:29;;;;;;;11.18;1.90;;;;;;;;;;5061120;28;20067;-87
2023/05/16 05:40:55;;;;;;;13.32;2.08;;;;;;;;;;5061286;28;20047;-86
2023/05/16 05:43:21;;;;;;;8.68;2.05;;;;;;;;;;5063369;28;20036;-88
2023/05/16 05:45:47;;;;;;;14.05;2.33;;;;;;;;;;5068018;28;20116;-88
2023/05/16 05:48:14;;;;;;;12.43;1.80;;;;;;;;;;5097238;28;20052;-88
2023/05/16 05:50:40;;;;;;;12.95;1.90;;;;;;;;;;5061810;28;20036;-88
2023/05/16 05:53:09;;;;;;;13.75;2.10;;;;;;;;;;5065141;28;20043;-89
2023/05/16 05:55:35;;;;;;;22.73;2.47;;;;;;;;;;5049020;28;20703;-87
2023/05/16 05:58:01;;;;;;;20.67;2.67;;;;;;;;;;5049517;28;20085;-88
2023/05/16 06:00:28;;;;;;;11.63;2.17;;;;;;;;;;5061700;28;20121;-87
2023/05/16 06:02:54;;;;;;;10.43;1.52;;;;;;;;;;5048260;28;20491;-86
2023/05/16 06:05:20;;;;;;;15.55;2.10;;;;;;;;;;5053935;28;20053;-87
2023/05/16 06:07:47;;;;;;;17.33;2.17;;;;;;;;;;5062797;28;20039;-86
2023/05/16 06:10:13;;;;;;;13.63;1.92;;;;;;;;;;5067139;28;20040;-86
2023/05/16 06:12:39;;;;;;;9.73;1.75;;;;;;;;;;5045963;28;20399;-88
2023/05/16 06:15:05;;;;;;;10.90;1.77;;;;;;;;;;5048882;28;20056;-86
2023/05/16 06:17:31;;;;;;;15.60;1.90;;;;;;;;;;5048186;28;20036;-87
2023/05/16 06:19:57;;;;;;;11.55;1.90;;;;;;;;;;5058391;28;20042;-86
2023/05/16 06:22:24;;;;;;;18.17;1.88;;;;;;;;;;5049161;28;21095;-88
2023/05/16 06:24:50;;;;;;;11.15;1.92;;;;;;;;;;5053067;28;20059;-87
2023/05/16 06:27:16;;;;;;;10.35;1.60;;;;;;;;;;5053138;28;20601;-88
2023/05/16 06:29:45;;;;;;;11.82;2.13;;;;;;;;;;5058622;28;20036;-90
2023/05/16 06:32:14;;;;;;;11.95;2.55;;;;;;;;;;5081221;28;20054;-88
2023/05/16 06:34:40;;;;;;;11.07;1.75;;;;;;;;;;5072880;28;20051;-88
2023/05/16 06:37:08;;;;;;;15.00;2.05;;;;;;;;;;5073641;28;20628;-89
2023/05/16 06:39:34;;;;;;;9.07;2.00;;;;;;;;;;5078397;28;20340;-89
2023/05/16 06:42:00;;;;;;;8.25;1.50;;;;;;;;;;5088684;28;20369;-89
2023/05/16 06:44:26;;;;;;;8.80;1.90;;;;;;;;;;5086410;28;20504;-87
2023/05/16 06:46:52;;;;;;;12.52;1.83;;;;;;;;;;5081315;28;20067;-88
2023/05/16 06:49:19;;;;;;;16.77;2.63;;;;;;;;;;5084274;28;20051;-88
2023/05/16 06:51:45;;;;;;;12.25;1.92;;;;;;;;;;5085356;28;20032;-88
2023/05/16 06:54:11;;;;;;;8.48;1.95;;;;;;;;;;5090161;28;20110;-88
2023/05/16 06:56:37;;;;;;;11.18;1.70;;;;;;;;;;5078738;28;20063;-88
2023/05/16 06:59:03;;;;;;;16.90;2.33;;;;;;;;;;5100919;28;20059;-88
2023/05/16 07:01:29;;;;;;;10.25;2.00;;;;;;;;;;5102365;28;20058;-85
2023/05/16 07:03:58;;;;;;;10.73;2.28;;;;;;;;;;5104716;28;20048;-87
2023/05/16 07:06:25;;;;;;;10.65;1.90;;;;;;;;;;5082937;28;20043;-88
2023/05/16 07:08:51;;;;;;;8.90;2.00;;;;;;;;;;5079193;28;20119;-88
2023/05/16 07:11:17;;;;;;;7.20;1.83;;;;;;;;;;5071890;28;20046;-87
2023/05/16 07:13:43;;;;;;;10.52;1.80;;;;;;;;;;5074729;28;20324;-87
2023/05/16 07:16:10;;;;;;;12.07;1.92;;;;;;;;;;5056682;28;20369;-87
2023/05/16 07:18:36;;;;;;;8.43;1.50;;;;;;;;;;5091013;28;20044;-86
2023/05/16 07:21:02;;;;;;;11.30;2.65;;;;;;;;;;5085966;28;20036;-88
2023/05/16 07:23:28;;;;;;;12.63;1.77;;;;;;;;;;5088934;28;20035;-87
2023/05/16 07:25:54;;;;;;;11.77;1.80;;;;;;;;;;5088350;28;20551;-88
2023/05/16 07:28:21;;;;;;;15.30;2.10;;;;;;;;;;5071939;28;20054;-88
2023/05/16 07:30:47;;;;;;;10.02;2.17;;;;;;;;;;5071499;28;20102;-86
2023/05/16 07:33:14;;;;;;;7.85;2.70;;;;;;;;;;5085822;28;20041;-88
2023/05/16 07:35:40;;;;;;;12.43;1.80;;;;;;;;;;5071137;28;20036;-88
2023/05/16 07:38:06;;;;;;;7.65;1.38;;;;;;;;;;5078406;28;20079;-88
2023/05/16 07:40:33;;;;;;;23.40;3.08;;;;;;;;;;5087474;28;20061;-88
2023/05/16 07:42:59;;;;;;;6.93;1.63;;;;;;;;;;5092249;28;20071;-88
2023/05/16 07:45:25;;;;;;;10.88;1.75;;;;;;;;;;5057638;28;20044;-88
2023/05/16 07:47:51;;;;;;;11.85;2.00;;;;;;;;;;5073694;28;20472;-88
2023/05/16 07:50:17;;;;;;;17.08;2.40;;;;;;;;;;5071428;28;20037;-88
2023/05/16 07:52:44;;;;;;;18.30;2.10;;;;;;;;;;5068822;28;20040;-88
2023/05/16 07:55:10;;;;;;;14.20;2.13;;;;;;;;;;5090360;28;20040;-87
2023/05/16 07:57:36;;;;;;;13.77;2.10;;;;;;;;;;5074754;28;20040;-88
2023/05/16 08:00:03;;;;;;;13.40;2.13;;;;;;;;;;5075690;28;20040;-88
2023/05/16 08:02:31;;;;;;;10.65;1.88;;;;;;;;;;5074845;28;20495;-88
2023/05/16 08:04:58;;;;;;;9.90;2.28;;;;;;;;;;5073037;28;20422;-87
2023/05/16 08:07:27;;;;;;;14.35;2.13;;;;;;;;;;5072365;28;20047;-87
2023/05/16 08:09:53;;;;;;;15.18;1.80;;;;;;;;;;5072674;28;20071;-86
2023/05/16 08:12:19;;;;;;;9.00;1.67;;;;;;;;;;5063875;28;20078;-86
2023/05/16 08:14:45;;;;;;;14.93;2.40;;;;;;;;;;5054336;28;20040;-70
2023/05/16 08:17:12;;;;;;;10.88;1.73;;;;;;;;;;5075010;28;20398;-70
2023/05/16 08:19:38;;;;;;;8.50;2.13;;;;;;;;;;5073996;28;20052;-70
2023/05/16 08:22:06;;;;;;;14.55;2.05;;;;;;;;;;5081280;28;20067;-70
2023/05/16 08:24:32;;;;;;;20.20;2.20;;;;;;;;;;5078727;28;20044;-70
2023/05/16 08:26:58;;;;;;;17.58;2.40;;;;;;;;;;5082661;28;20040;-70
2023/05/16 08:29:24;;;;;;;9.85;1.60;;;;;;;;;;5085196;28;20036;-82
2023/05/16 08:31:50;;;;;;;13.15;1.88;;;;;;;;;;5061925;28;20229;-81
2023/05/16 08:34:16;;;;;;;11.85;1.83;;;;;;;;;;5080009;28;20052;-83
2023/05/16 08:36:42;;;;;;;12.15;2.08;;;;;;;;;;5081194;28;20056;-84
2023/05/16 08:39:11;;;;;;;11.25;1.95;;;;;;;;;;5083219;28;20036;-84
2023/05/16 08:41:38;;;;;;;11.90;1.50;;;;;;;;;;5078336;28;20051;-83
2023/05/16 08:44:04;;;;;;;16.83;2.63;;;;;;;;;;5079592;28;20048;-82
2023/05/16 08:46:32;;;;;;;31.10;3.28;;;;;;;;;;5062127;28;20036;-83
2023/05/16 08:49:00;;;;;;;14.15;2.40;;;;;;;;;;5078625;28;20078;-82
2023/05/16 08:51:27;;;;;;;11.32;1.80;;;;;;;;;;5076676;28;20059;-82
2023/05/16 08:54:15;;;;;;;13.05;1.83;;;;;;;;;;5078727;28;20043;-85
2023/05/16 08:56:42;;;;;;;7.80;1.90;;;;;;;;;;5080144;28;20064;-83
2023/05/16 08:59:08;;;;;;;10.10;1.60;;;;;;;;;;5068484;28;21482;-82
2023/05/16 09:01:34;;;;;;;8.85;1.35;;;;;;;;;;5060217;28;20500;-82
2023/05/16 09:04:00;;;;;;;10.07;1.90;;;;;;;;;;5067674;28;20048;-82
2023/05/16 09:06:27;;;;;;;14.25;1.92;;;;;;;;;;5073782;28;20528;-81
2023/05/16 09:08:54;;;;;;;10.30;1.63;;;;;;;;;;5079316;28;20044;-82
2023/05/16 09:11:20;;;;;;;11.07;1.88;;;;;;;;;;5077229;28;20047;-83
2023/05/16 09:13:47;;;;;;;16.40;1.95;;;;;;;;;;5074877;28;20109;-82
2023/05/16 09:16:14;;;;;;;11.05;2.72;;;;;;;;;;5064225;28;20546;-82
2023/05/16 09:18:42;;;;;;;9.48;1.73;;;;;;;;;;5078494;28;20040;-82
2023/05/16 09:21:14;;;;;;;9.90;2.00;;;;;;;;;;5077067;28;20040;-83
2023/05/16 09:23:43;;;;;;;14.27;2.33;;;;;;;;;;5071428;28;20044;-82
2023/05/16 09:26:09;;;;;;;11.82;2.40;;;;;;;;;;5070949;28;20028;-82
2023/05/16 09:28:39;;;;;;;9.23;1.83;;;;;;;;;;5076989;28;20511;-83
2023/05/16 09:31:19;;;;;;;9.15;1.63;;;;;;;;;;5069368;28;20036;-71
2023/05/16 09:33:45;;;;;;;10.32;1.90;;;;;;;;;;5060343;28;20059;-71
2023/05/16 09:36:12;;;;;;;9.93;1.40;;;;;;;;;;5073376;28;20040;-72
2023/05/16 09:38:39;;;;;;;5.63;1.02;;;;;;;;;;5059529;28;20060;-71
2023/05/16 09:41:05;;;;;;;5.63;1.40;;;;;;;;;;5057976;28;20054;-71
2023/05/16 09:43:31;;;;;;;11.38;2.08;;;;;;;;;;5056648;28;20097;-71
2023/05/16 09:45:59;;;;;;;8.40;1.38;;;;;;;;;;5060429;28;20516;-70
2023/05/16 09:48:27;;;;;;;6.82;1.17;;;;;;;;;;5058322;28;20068;-71
2023/05/16 09:50:53;;;;;;;12.10;1.55;;;;;;;;;;5057343;28;20078;-70
2023/05/16 09:53:26;;;;;;;9.23;1.63;;;;;;;;;;5040927;28;20048;-71
2023/05/16 09:56:00;;;;;;;7.80;1.50;;;;;;;;;;5059097;28;20059;-79
2023/05/16 09:58:32;;;;;;;10.80;1.83;;;;;;;;;;5060993;28;20155;-79
2023/05/16 10:00:58;;;;;;;10.07;1.58;;;;;;;;;;5041653;28;20086;-81
2023/05/16 10:03:25;;;;;;;19.25;2.85;;;;;;;;;;5045617;28;20924;-79
2023/05/16 10:05:52;;;;;;;11.32;2.05;;;;;;;;;;5059935;28;20068;-80
2023/05/16 10:08:22;;;;;;;6.82;1.42;;;;;;;;;;5044570;28;20046;-79
2023/05/16 10:10:52;;;;;;;8.90;1.63;;;;;;;;;;5061970;28;20043;-80
2023/05/16 10:13:22;;;;;;;15.65;2.35;;;;;;;;;;5061446;28;20052;-80
2023/05/16 10:15:49;;;;;;;10.68;2.10;;;;;;;;;;5059664;28;21873;-80
2023/05/16 10:18:17;;;;;;;12.18;1.65;;;;;;;;;;5060452;28;20048;-80
2023/05/16 10:20:44;;;;;;;12.57;2.00;;;;;;;;;;5060387;28;20049;-80
2023/05/16 10:23:14;;;;;;;15.60;2.40;;;;;;;;;;5062109;28;20040;-80
2023/05/16 10:25:41;;;;;;;12.27;1.77;;;;;;;;;;5046717;28;20052;-80
2023/05/16 10:28:11;;;;;;;9.50;2.05;;;;;;;;;;5087924;28;20040;-82
2023/05/16 10:30:39;;;;;;;5.13;1.55;;;;;;;;;;5062464;28;20054;-81
2023/05/16 10:33:06;;;;;;;6.63;1.17;;;;;;;;;;5065332;28;20058;-82
2023/05/16 10:35:34;;;;;;;7.70;1.02;;;;;;;;;;5074004;28;20756;-80
2023/05/16 10:38:00;;;;;;;5.47;1.60;;;;;;;;;;5066543;28;20052;-80
2023/05/16 10:40:27;;;;;;;3.53;0.95;;;;;;;;;;5070445;28;20556;-79
2023/05/16 10:43:00;;;;;;;3.30;1.08;;;;;;;;;;5076592;28;20044;-79
2023/05/16 10:45:26;;;;;;;5.30;1.25;;;;;;;;;;5070284;28;20070;-80
2023/05/16 10:48:00;;;;;;;5.43;1.88;;;;;;;;;;5062111;28;20094;-80
2023/05/16 10:50:26;;;;;;;;;;;;;;;;;;5063231;28;20040;-80
2023/05/16 10:52:52;;;;;;;6.72;1.63;;;;;;;;;;5078788;28;20288;-80
2023/05/16 10:55:18;;;;;;;11.65;1.70;;;;;;;;;;5062440;28;20084;-80
2023/05/16 10:57:44;;;;;;;15.75;1.85;;;;;;;;;;5064592;28;20040;-80
2023/05/16 11:00:21;;;;;;;10.40;2.15;;;;;;;;;;5061719;28;20041;-80
2023/05/16 11:02:47;;;;;;;11.88;2.45;;;;;;;;;;5060003;28;20048;-80
2023/05/16 11:05:17;;;;;;;16.88;1.88;;;;;;;;;;5060586;28;20059;-80
2023/05/16 11:07:44;;;;;;;13.55;2.40;;;;;;;;;;5056536;28;20055;-80
2023/05/16 11:10:14;;;;;;;14.23;1.90;;;;;;;;;;5078305;28;20036;-80
2023/05/16 11:12:45;;;;;;;7.35;1.58;;;;;;;;;;5060250;28;20048;-80
2023/05/16 11:15:18;;;;;;;8.23;1.65;;;;;;;;;;5060903;28;20079;-81
2023/05/16 11:17:44;;;;;;;15.43;2.15;;;;;;;;;;5059321;28;20048;-80
2023/05/16 11:20:26;;;;;;;12.45;1.90;;;;;;;;;;5067611;28;20044;-81
2023/05/16 11:23:12;;;;;;;11.25;1.98;;;;;;;;;;5062011;28;20534;-81
2023/05/16 11:25:39;;;;;;;8.27;1.60;;;;;;;;;;5044951;28;20372;-81
2023/05/16 11:28:07;;;;;;;10.38;2.20;;;;;;;;;;5056779;28;20052;-80
2023/05/16 11:30:34;;;;;;;8.90;1.80;;;;;;;;;;5060912;28;20048;-81
2023/05/16 11:33:00;;;;;;;10.70;1.73;;;;;;;;;;5060427;28;20675;-80
2023/05/16 11:35:26;;;;;;;13.70;2.25;;;;;;;;;;5061148;28;20036;-80
2023/05/16 11:37:52;;;;;;;12.55;2.35;;;;;;;;;;5062027;28;20052;-80
2023/05/16 11:40:18;;;;;;;12.18;2.30;;;;;;;;;;5076037;28;21033;-80
2023/05/16 11:42:46;;;;;;;11.63;2.33;;;;;;;;;;5061636;28;20071;-80
2023/05/16 11:45:12;;;;;;;21.20;3.35;;;;;;;;;;5061346;28;20048;-80
2023/05/16 11:47:39;;;;;;;5.30;2.00;;;;;;;;;;5046094;28;20048;-80
2023/05/16 11:50:12;;;;;;;10.13;2.10;;;;;;;;;;5062254;28;20044;-80
2023/05/16 11:52:39;;;;;;;11.93;2.67;;;;;;;;;;5063954;28;20043;-79
2023/05/16 11:55:06;;;;;;;10.35;2.55;;;;;;;;;;5044813;28;20502;-79
2023/05/16 11:57:33;;;;;;;10.48;1.98;;;;;;;;;;5057338;28;20040;-80
2023/05/16 12:00:13;;;;;;;10.25;1.80;;;;;;;;;;5056220;28;20481;-79
2023/05/16 12:02:39;;;;;;;10.80;2.67;;;;;;;;;;5059864;28;20039;-79
2023/05/16 12:05:07;;;;;;;8.90;1.85;;;;;;;;;;5059995;28;20082;-79
2023/05/16 12:07:33;;;;;;;14.20;2.50;;;;;;;;;;5059297;28;20050;-80
2023/05/16 12:09:59;;;;;;;11.57;2.42;;;;;;;;;;5058233;28;20047;-79
2023/05/16 12:12:25;;;;;;;15.60;2.47;;;;;;;;;;5056259;28;20127;-79
2023/05/16 12:14:51;;;;;;;11.75;2.08;;;;;;;;;;5058857;28;20059;-80
2023/05/16 12:17:21;;;;;;;12.55;2.30;;;;;;;;;;5075580;28;20041;-80
2023/05/16 12:19:47;;;;;;;10.77;1.85;;;;;;;;;;5060088;28;20473;-78
2023/05/16 12:22:20;;;;;;;7.82;1.90;;;;;;;;;;5055941;28;20044;-80
2023/05/16 12:24:46;;;;;;;12.05;1.75;;;;;;;;;;5058172;28;20268;-79
2023/05/16 12:27:12;;;;;;;15.77;1.85;;;;;;;;;;5057514;28;20044;-79
2023/05/16 12:29:38;;;;;;;12.63;2.35;;;;;;;;;;5059779;28;20040;-78
2023/05/16 12:32:08;;;;;;;11.52;2.85;;;;;;;;;;5058999;28;20399;-80
2023/05/16 12:34:34;;;;;;;11.88;2.58;;;;;;;;;;5058620;28;20450;-80
2023/05/16 12:37:00;;;;;;;8.30;2.80;;;;;;;;;;5072100;28;20048;-79
2023/05/16 12:39:26;;;;;;;15.93;3.95;;;;;;;;;;5058429;28;20048;-80
2023/05/16 12:41:53;;;;;;;16.27;3.10;;;;;;;;;;5039852;28;20092;-79
2023/05/16 12:44:19;;;;;;;10.75;3.15;;;;;;;;;;5057050;28;20059;-81
2023/05/16 12:46:47;;;;;;;10.85;3.35;;;;;;;;;;5060516;28;20055;-80
2023/05/16 12:49:13;;;;;;;13.55;3.85;;;;;;;;;;5072104;28;20146;-79
2023/05/16 12:51:39;;;;;;;12.15;3.88;;;;;;;;;;5059807;28;20048;-79
2023/05/16 12:54:10;;;;;;;12.77;4.35;;;;;;;;;;5056288;28;20048;-80
2023/05/16 12:56:37;;;;;;;12.10;4.15;;;;;;;;;;5056395;28;20074;-80
2023/05/16 12:59:03;;;;;;;12.90;3.35;;;;;;;;;;5055609;28;20661;-80
2023/05/16 13:01:29;;;;;;;9.88;3.30;;;;;;;;;;5056419;28;20396;-80
2023/05/16 13:03:55;;;;;;;13.57;4.00;;;;;;;;;;5054567;28;20463;-80
2023/05/16 13:06:22;;;;;;;8.48;3.70;;;;;;;;;;5058659;28;20124;-80
2023/05/16 13:08:48;;;;;;;15.27;4.00;;;;;;;;;;5023805;28;20032;-80
2023/05/16 13:11:14;;;;;;;11.27;3.55;;;;;;;;;;5062517;28;20121;-80
2023/05/16 13:13:40;;;;;;;8.88;2.97;;;;;;;;;;5066500;28;20044;-80
2023/05/16 13:16:06;;;;;;;10.82;2.20;;;;;;;;;;5067679;28;20055;-81
2023/05/16 13:18:33;;;;;;;8.70;2.35;;;;;;;;;;5068886;28;20574;-80
2023/05/16 13:20:59;;;;;;;8.15;2.53;;;;;;;;;;5051050;28;20631;-77
2023/05/16 13:23:25;;;;;;;6.53;1.65;;;;;;;;;;5058684;28;20090;-80
2023/05/16 13:25:52;;;;;;;12.73;3.38;;;;;;;;;;5061336;28;20052;-79
2023/05/16 13:28:18;;;;;;;6.82;2.22;;;;;;;;;;5080416;28;20048;-80
2023/05/16 13:30:44;;;;;;;11.43;2.60;;;;;;;;;;5059054;28;20050;-79
2023/05/16 13:33:10;;;;;;;11.57;3.65;;;;;;;;;;5059077;28;20047;-80
2023/05/16 13:35:37;;;;;;;13.98;2.80;;;;;;;;;;5054296;28;20044;-79
2023/05/16 13:38:03;;;;;;;8.10;2.22;;;;;;;;;;5052042;28;20048;-79
2023/05/16 13:40:29;;;;;;;6.07;2.33;;;;;;;;;;5055220;28;20055;-78
2023/05/16 13:42:56;;;;;;;8.82;2.67;;;;;;;;;;5036368;28;20803;-80
2023/05/16 13:45:22;;;;;;;9.63;3.53;;;;;;;;;;5041755;28;20055;-79
2023/05/16 13:47:48;;;;;;;8.10;3.40;;;;;;;;;;5055198;28;20139;-81
2023/05/16 13:50:14;;;;;;;8.30;3.60;;;;;;;;;;5055870;28;20526;-80
2023/05/16 13:52:41;;;;;;;9.35;3.83;;;;;;;;;;5058836;28;20632;-80
2023/05/16 13:55:08;;;;;;;23.70;3.75;;;;;;;;;;5057547;28;20094;-79
2023/05/16 13:57:34;;;;;;;10.57;2.80;;;;;;;;;;5058447;28;20113;-80
2023/05/16 14:00:00;;;;;;;8.65;3.35;;;;;;;;;;5058907;28;20313;-79
2023/05/16 14:02:26;;;;;;;11.82;4.00;;;;;;;;;;5073621;28;20048;-79
2023/05/16 14:04:53;;;;;;;11.20;3.33;;;;;;;;;;5058318;28;20155;-80
2023/05/16 14:07:19;;;;;;;7.63;3.65;;;;;;;;;;5038418;28;20045;-82
2023/05/16 14:09:45;;;;;;;9.25;3.42;;;;;;;;;;5057811;28;21651;-81
2023/05/16 14:12:11;;;;;;;8.00;3.28;;;;;;;;;;5067531;28;20056;-82
2023/05/16 14:14:37;;;;;;;8.27;3.15;;;;;;;;;;5058230;28;20133;-80
2023/05/16 14:17:04;;;;;;;11.10;2.97;;;;;;;;;;5068196;28;20058;-82
2023/05/16 14:19:30;;;;;;;12.20;3.55;;;;;;;;;;5062172;28;20479;-82
2023/05/16 14:21:56;;;;;;;7.40;3.03;;;;;;;;;;5063663;28;20039;-82
2023/05/16 14:24:22;;;;;;;8.77;3.22;;;;;;;;;;5060843;28;20050;-83
2023/05/16 14:26:48;;;;;;;12.25;3.20;;;;;;;;;;5061704;28;20155;-82
2023/05/16 14:29:14;;;;;;;8.30;3.30;;;;;;;;;;5077075;28;20075;-83
2023/05/16 14:31:40;;;;;;;8.63;3.20;;;;;;;;;;5060353;28;20125;-83
2023/05/16 14:34:07;;;;;;;7.57;3.08;;;;;;;;;;5059533;28;20051;-82